sim
Sign-in with your pilot id or email,
or register
Callsign
Passwort

Schedule Details

Flight Number: OEO7357
Departure: Khartoum International Airport (HSSS) at 14:35
Arrival: Munich Airport (EDDM) at 20:50

Weather Information
Getting current METAR information for HSSS 280930Z 32004KT CAVOK 36/17 Q1011 NOSIG
Getting current METAR information for EDDM 280920Z 21003KT 150V270 9999 -RA FEW007 BKN045 08/06 Q1011 NOSIG

Schedule Frequency

Route Map